sensor_id;sensor_type;location;lat;lon;timestamp;temperature;humidity
10143;DHT22;5112;54.088;13.446;2023-07-29T00:00:20;15.00;99.90
10143;DHT22;5112;54.088;13.446;2023-07-29T00:10:22;15.00;99.90
10143;DHT22;5112;54.088;13.446;2023-07-29T00:20:25;15.10;99.90
10143;DHT22;5112;54.088;13.446;2023-07-29T00:30:27;15.20;99.90
10143;DHT22;5112;54.088;13.446;2023-07-29T00:40:31;15.20;99.90
10143;DHT22;5112;54.088;13.446;2023-07-29T00:50:35;15.40;99.90
10143;DHT22;5112;54.088;13.446;2023-07-29T01:00:38;15.90;99.90
10143;DHT22;5112;54.088;13.446;2023-07-29T01:10:48;15.90;99.90
10143;DHT22;5112;54.088;13.446;2023-07-29T01:20:54;16.10;99.90
10143;DHT22;5112;54.088;13.446;2023-07-29T01:31:02;15.80;99.90
10143;DHT22;5112;54.088;13.446;2023-07-29T01:41:08;15.60;99.90
10143;DHT22;5112;54.088;13.446;2023-07-29T01:51:12;15.40;99.90
10143;DHT22;5112;54.088;13.446;2023-07-29T02:01:13;15.30;99.90
10143;DHT22;5112;54.088;13.446;2023-07-29T02:11:17;15.20;99.90
10143;DHT22;5112;54.088;13.446;2023-07-29T02:21:20;15.20;99.90
10143;DHT22;5112;54.088;13.446;2023-07-29T02:31:24;15.40;99.90
10143;DHT22;5112;54.088;13.446;2023-07-29T02:41:26;15.60;99.90
10143;DHT22;5112;54.088;13.446;2023-07-29T02:51:29;15.60;99.90
10143;DHT22;5112;54.088;13.446;2023-07-29T03:01:31;15.70;99.90
10143;DHT22;5112;54.088;13.446;2023-07-29T03:11:34;15.60;99.90
10143;DHT22;5112;54.088;13.446;2023-07-29T03:21:36;15.40;99.90
10143;DHT22;5112;54.088;13.446;2023-07-29T03:31:39;15.30;99.90
10143;DHT22;5112;54.088;13.446;2023-07-29T03:41:41;15.60;99.90
10143;DHT22;5112;54.088;13.446;2023-07-29T03:51:44;15.60;99.90
10143;DHT22;5112;54.088;13.446;2023-07-29T04:01:46;15.70;99.90
10143;DHT22;5112;54.088;13.446;2023-07-29T04:11:49;15.80;99.90
10143;DHT22;5112;54.088;13.446;2023-07-29T04:21:50;16.00;99.90
10143;DHT22;5112;54.088;13.446;2023-07-29T04:31:53;16.10;99.90
10143;DHT22;5112;54.088;13.446;2023-07-29T04:41:55;16.40;99.90
10143;DHT22;5112;54.088;13.446;2023-07-29T04:51:59;16.60;99.90
10143;DHT22;5112;54.088;13.446;2023-07-29T05:02:00;16.70;99.90
10143;DHT22;5112;54.088;13.446;2023-07-29T05:12:04;16.90;99.90
10143;DHT22;5112;54.088;13.446;2023-07-29T05:22:06;17.00;99.90
10143;DHT22;5112;54.088;13.446;2023-07-29T05:32:09;17.30;99.90
10143;DHT22;5112;54.088;13.446;2023-07-29T05:42:11;17.50;99.90
10143;DHT22;5112;54.088;13.446;2023-07-29T05:52:14;17.70;99.90
10143;DHT22;5112;54.088;13.446;2023-07-29T06:02:16;17.90;99.90
10143;DHT22;5112;54.088;13.446;2023-07-29T06:12:19;18.10;99.90
10143;DHT22;5112;54.088;13.446;2023-07-29T06:22:20;18.30;99.90
10143;DHT22;5112;54.088;13.446;2023-07-29T06:32:23;18.70;99.90
10143;DHT22;5112;54.088;13.446;2023-07-29T06:42:25;19.10;99.90
10143;DHT22;5112;54.088;13.446;2023-07-29T06:52:28;19.40;99.90
10143;DHT22;5112;54.088;13.446;2023-07-29T07:02:30;19.80;99.90
10143;DHT22;5112;54.088;13.446;2023-07-29T07:12:33;20.40;99.90
10143;DHT22;5112;54.088;13.446;2023-07-29T07:22:34;20.80;99.90
10143;DHT22;5112;54.088;13.446;2023-07-29T07:32:37;21.40;99.90
10143;DHT22;5112;54.088;13.446;2023-07-29T07:42:39;22.00;99.90
10143;DHT22;5112;54.088;13.446;2023-07-29T07:52:42;22.30;99.90
10143;DHT22;5112;54.088;13.446;2023-07-29T08:02:44;22.60;99.90
10143;DHT22;5112;54.088;13.446;2023-07-29T08:12:47;23.00;99.90
10143;DHT22;5112;54.088;13.446;2023-07-29T08:22:49;23.30;99.90
10143;DHT22;5112;54.088;13.446;2023-07-29T08:32:52;23.10;99.90
10143;DHT22;5112;54.088;13.446;2023-07-29T08:42:54;23.30;99.90
10143;DHT22;5112;54.088;13.446;2023-07-29T08:52:59;23.40;99.90
10143;DHT22;5112;54.088;13.446;2023-07-29T09:03:02;23.40;99.90
10143;DHT22;5112;54.088;13.446;2023-07-29T09:13:08;23.80;99.90
10143;DHT22;5112;54.088;13.446;2023-07-29T09:23:10;24.50;99.90
10143;DHT22;5112;54.088;13.446;2023-07-29T09:33:13;24.50;99.90
10143;DHT22;5112;54.088;13.446;2023-07-29T09:43:17;24.60;99.90
10143;DHT22;5112;54.088;13.446;2023-07-29T09:53:20;24.30;99.90
10143;DHT22;5112;54.088;13.446;2023-07-29T10:03:22;24.10;99.90
10143;DHT22;5112;54.088;13.446;2023-07-29T10:13:25;24.10;99.90
10143;DHT22;5112;54.088;13.446;2023-07-29T10:23:31;24.30;99.90
10143;DHT22;5112;54.088;13.446;2023-07-29T10:33:37;23.80;99.90
10143;DHT22;5112;54.088;13.446;2023-07-29T10:43:39;21.40;99.90
10143;DHT22;5112;54.088;13.446;2023-07-29T10:53:42;20.90;99.90
10143;DHT22;5112;54.088;13.446;2023-07-29T11:04:01;20.80;99.90
10143;DHT22;5112;54.088;13.446;2023-07-29T11:14:05;20.80;99.90
10143;DHT22;5112;54.088;13.446;2023-07-29T11:24:09;21.20;99.90
10143;DHT22;5112;54.088;13.446;2023-07-29T11:34:12;21.20;99.90
10143;DHT22;5112;54.088;13.446;2023-07-29T11:44:18;21.20;99.90
10143;DHT22;5112;54.088;13.446;2023-07-29T11:54:21;21.10;99.90
10143;DHT22;5112;54.088;13.446;2023-07-29T12:04:24;21.10;99.90
10143;DHT22;5112;54.088;13.446;2023-07-29T12:14:28;21.00;99.90
10143;DHT22;5112;54.088;13.446;2023-07-29T12:24:30;20.90;99.90
10143;DHT22;5112;54.088;13.446;2023-07-29T12:34:33;20.70;99.90
10143;DHT22;5112;54.088;13.446;2023-07-29T12:44:37;20.80;99.90
10143;DHT22;5112;54.088;13.446;2023-07-29T12:54:40;20.70;99.90
10143;DHT22;5112;54.088;13.446;2023-07-29T13:04:44;20.50;99.90
10143;DHT22;5112;54.088;13.446;2023-07-29T13:14:47;20.80;99.90
10143;DHT22;5112;54.088;13.446;2023-07-29T13:24:49;21.10;99.90
10143;DHT22;5112;54.088;13.446;2023-07-29T13:34:52;21.60;99.90
10143;DHT22;5112;54.088;13.446;2023-07-29T13:44:54;21.60;99.90
10143;DHT22;5112;54.088;13.446;2023-07-29T13:54:57;21.60;99.90
10143;DHT22;5112;54.088;13.446;2023-07-29T14:04:58;21.60;99.90
10143;DHT22;5112;54.088;13.446;2023-07-29T14:15:01;21.70;99.90
10143;DHT22;5112;54.088;13.446;2023-07-29T14:25:04;20.30;99.90
10143;DHT22;5112;54.088;13.446;2023-07-29T14:35:08;19.20;99.90
10143;DHT22;5112;54.088;13.446;2023-07-29T14:45:10;18.40;99.90
10143;DHT22;5112;54.088;13.446;2023-07-29T14:55:13;18.50;99.90
10143;DHT22;5112;54.088;13.446;2023-07-29T15:05:15;18.70;99.90
10143;DHT22;5112;54.088;13.446;2023-07-29T15:15:18;19.00;99.90
10143;DHT22;5112;54.088;13.446;2023-07-29T15:25:20;19.10;99.90
10143;DHT22;5112;54.088;13.446;2023-07-29T15:35:23;19.30;99.90
10143;DHT22;5112;54.088;13.446;2023-07-29T15:45:25;19.50;99.90
10143;DHT22;5112;54.088;13.446;2023-07-29T15:55:28;19.50;99.90
10143;DHT22;5112;54.088;13.446;2023-07-29T16:05:29;19.60;99.90
10143;DHT22;5112;54.088;13.446;2023-07-29T16:15:33;19.70;99.90
10143;DHT22;5112;54.088;13.446;2023-07-29T16:25:35;20.10;99.90
10143;DHT22;5112;54.088;13.446;2023-07-29T16:35:38;20.10;99.90
10143;DHT22;5112;54.088;13.446;2023-07-29T16:45:39;20.20;99.90
10143;DHT22;5112;54.088;13.446;2023-07-29T16:55:42;20.30;99.90
10143;DHT22;5112;54.088;13.446;2023-07-29T17:05:44;20.40;99.90
10143;DHT22;5112;54.088;13.446;2023-07-29T17:15:47;20.30;99.90
10143;DHT22;5112;54.088;13.446;2023-07-29T17:25:49;20.40;99.90
10143;DHT22;5112;54.088;13.446;2023-07-29T17:35:52;20.50;99.90
10143;DHT22;5112;54.088;13.446;2023-07-29T17:45:55;20.50;99.90
10143;DHT22;5112;54.088;13.446;2023-07-29T17:55:58;20.40;99.90
10143;DHT22;5112;54.088;13.446;2023-07-29T18:06:00;20.10;99.90
10143;DHT22;5112;54.088;13.446;2023-07-29T18:16:03;19.70;99.90
10143;DHT22;5112;54.088;13.446;2023-07-29T18:26:05;19.30;99.90
10143;DHT22;5112;54.088;13.446;2023-07-29T18:36:08;19.00;99.90
10143;DHT22;5112;54.088;13.446;2023-07-29T18:46:09;18.80;99.90
10143;DHT22;5112;54.088;13.446;2023-07-29T18:56:14;18.80;99.90
10143;DHT22;5112;54.088;13.446;2023-07-29T19:06:16;18.70;99.90
10143;DHT22;5112;54.088;13.446;2023-07-29T19:16:19;18.80;99.90
10143;DHT22;5112;54.088;13.446;2023-07-29T19:26:21;18.80;99.90
10143;DHT22;5112;54.088;13.446;2023-07-29T19:36:24;18.60;99.90
10143;DHT22;5112;54.088;13.446;2023-07-29T19:46:25;18.70;99.90
10143;DHT22;5112;54.088;13.446;2023-07-29T19:56:28;18.70;99.90
10143;DHT22;5112;54.088;13.446;2023-07-29T20:06:30;18.50;99.90
10143;DHT22;5112;54.088;13.446;2023-07-29T20:16:34;18.40;99.90
10143;DHT22;5112;54.088;13.446;2023-07-29T20:26:36;18.30;99.90
10143;DHT22;5112;54.088;13.446;2023-07-29T20:36:39;18.10;99.90
10143;DHT22;5112;54.088;13.446;2023-07-29T20:46:41;17.80;99.90
10143;DHT22;5112;54.088;13.446;2023-07-29T20:56:44;17.60;99.90
10143;DHT22;5112;54.088;13.446;2023-07-29T21:06:45;17.70;99.90
10143;DHT22;5112;54.088;13.446;2023-07-29T21:16:48;17.50;99.90
10143;DHT22;5112;54.088;13.446;2023-07-29T21:26:50;17.50;99.90
10143;DHT22;5112;54.088;13.446;2023-07-29T21:36:53;17.50;99.90
10143;DHT22;5112;54.088;13.446;2023-07-29T21:46:55;17.50;99.90
10143;DHT22;5112;54.088;13.446;2023-07-29T21:56:58;17.70;99.90
10143;DHT22;5112;54.088;13.446;2023-07-29T22:06:59;17.50;99.90
10143;DHT22;5112;54.088;13.446;2023-07-29T22:17:03;17.40;99.90
10143;DHT22;5112;54.088;13.446;2023-07-29T22:27:05;17.30;99.90
10143;DHT22;5112;54.088;13.446;2023-07-29T22:37:09;17.20;99.90
10143;DHT22;5112;54.088;13.446;2023-07-29T22:47:11;17.00;99.90
10143;DHT22;5112;54.088;13.446;2023-07-29T22:57:14;16.90;99.90
10143;DHT22;5112;54.088;13.446;2023-07-29T23:07:16;16.80;99.90
10143;DHT22;5112;54.088;13.446;2023-07-29T23:17:19;16.60;99.90
10143;DHT22;5112;54.088;13.446;2023-07-29T23:27:21;16.50;99.90
10143;DHT22;5112;54.088;13.446;2023-07-29T23:37:24;16.50;99.90
10143;DHT22;5112;54.088;13.446;2023-07-29T23:47:26;16.50;99.90
10143;DHT22;5112;54.088;13.446;2023-07-29T23:57:29;16.50;99.90
